Wink, TX

6:34 AM CDT on April 25, 2017 (GMT -0500)
Winkler County | | Change Station
Active Advisory: Wind Advisory

Elev 2818 ft 31.78 °N, 103.20 °W | Updated 41 minutes ago

Partly Cloudy
Partly Cloudy
77 °F
Feels Like 77 °F
N
16
Wind Variable Wind from WSW

Today
High -- | Low -- °F
--% Chance of Precip.
Yesterday
High -- | Low -- °F
Precip. -- in
Pressure 29.42 in
Visibility 10.0 miles
Clouds Clear
Dew Point 20 °F
Humidity 12%
Rainfall 0.00 in
Snow Depth Not available.
7:12 AM 8:28 PM
Waning Crescent, 2% visible
METAR KINK 251053Z AUTO 25014KT 10SM CLR 25/M07 A2957 RMK AO2 SLP960 T02501067 PWINO $
Pressure 29.42 in
Visibility 10.0 miles
Clouds Clear
Dew Point 20 °F
Humidity 12%
Rainfall 0.00 in
Snow Depth Not available.
7:12 AM 8:28 PM
Waning Crescent, 2% visible
METAR KINK 251053Z AUTO 25014KT 10SM CLR 25/M07 A2957 RMK AO2 SLP960 T02501067 PWINO $

Get Your Daily Forecast Email!

Thanks for signing up!

Be on the lookout for a verification email in your inbox.

You'll start receiving severe weather alerts in your inbox..

×

10-Day Weather Forecast

Almanac

Astronomy

Apr. 25, 2017 Rise Set
Actual Time
Civil Twilight
Nautical Twilight
Astronomical Twilight
Moon
Length of Visible Light
Length of Day
Tomorrow will be .
, % of the Moon is Illuminated

Today's Extremes

State Highs State Lows

Community

WunderPhotos

WunderBlog® & News

Nearby

Air Quality

  Air Quality AQ Index Pollutant
Not available.

Snow Depth

Station Depth Elevation

Earthquake Activity

City Distance Mag. Time & Date
Minimum magnitude displayed is 2.5.

Coastal Water Temperatures

Place Temperature

Stations

Nearby Weather Stations

Station Location Temp. Windchill Dew Point Humidity Wind Precip. Elev Updated Type
                   

Watches & Warnings

Wind Advisory
Issued: 3:06 AM MDT Apr. 25, 2017 – National Weather Service

... Wind Advisory in effect from 7 am CDT /6 am MDT/ this morning
to 1 am CDT /midnight MDT/ Wednesday...

* timing... 7 am CDT /6 am MDT/ this morning to 1 am CDT /midnight
MDT/ Wednesday.

* Winds... today... southwest to west 30 to 40 mph. Gusts up to 55
mph in the afternoon. Tonight... west to northwest 25 to 35 mph
with gusts to around 50 mph.

* Impacts... secure lawn furniture, garbage cans or other objects
which could be blown about by the wind.

Precautionary/preparedness actions...

A Wind Advisory means that winds of 30 mph are expected. Winds
this strong can make driving difficult, especially for high
profile vehicles. Use extra caution.